Wetterdaten: Woche 06.09.10 - 12.09.10 (KW36)
Datum Zeit Temp. A. Feuchte A. Luftdruck Regen Wind Richtung Taupunkt Windchill Windben
06.09.2010 00:00 9,4 C 80 % 1021,8 hPa 0,0 l/m 0,0 km/h N 6,2 C 9,4 C 1,6 km/h
06.09.2010 01:00 8,7 C 82 % 1021,6 hPa 0,0 l/m 0,1 km/h N 5,7 C 8,7 C 2,0 km/h
06.09.2010 02:00 8,0 C 84 % 1021,4 hPa 0,0 l/m 0,0 km/h N 5,4 C 8,0 C 2,0 km/h
06.09.2010 03:00 7,7 C 85 % 1021,0 hPa 0,0 l/m 0,1 km/h N 5,3 C 7,7 C 3,6 km/h
06.09.2010 04:00 7,7 C 85 % 1021,0 hPa 0,0 l/m 0,2 km/h N 5,3 C 7,7 C 4,0 km/h
06.09.2010 05:00 7,4 C 85 % 1020,9 hPa 0,0 l/m 0,0 km/h N 5,0 C 7,4 C 1,2 km/h
06.09.2010 06:00 6,7 C 86 % 1021,1 hPa 0,0 l/m 0,0 km/h N 4,4 C 6,7 C 0,8 km/h
06.09.2010 07:00 7,1 C 87 % 1021,2 hPa 0,0 l/m 0,0 km/h N 5,0 C 7,1 C 0,8 km/h
06.09.2010 08:00 9,3 C 86 % 1021,2 hPa 0,0 l/m 1,6 km/h N-NW 7,1 C 9,3 C 6,0 km/h
06.09.2010 09:00 11,3 C 79 % 1021,2 hPa 0,0 l/m 3,0 km/h NW 7,8 C 11,3 C 8,8 km/h
06.09.2010 10:00 12,6 C 73 % 1021,1 hPa 0,0 l/m 2,1 km/h N-NO 7,8 C 12,6 C 6,8 km/h
06.09.2010 11:00 15,1 C 59 % 1020,6 hPa 0,0 l/m 3,3 km/h NO 7,1 C 15,1 C 9,6 km/h
06.09.2010 12:00 16,5 C 54 % 1020,2 hPa 0,0 l/m 3,5 km/h NO 7,1 C 16,5 C 9,3 km/h
06.09.2010 13:00 18,3 C 47 % 1019,6 hPa 0,0 l/m 3,0 km/h N-NW 6,8 C 18,3 C 9,3 km/h
06.09.2010 14:00 17,9 C 49 % 1019,2 hPa 0,0 l/m 2,3 km/h N-NW 6,9 C 17,9 C 7,2 km/h
06.09.2010 15:00 16,5 C 56 % 1018,7 hPa 0,0 l/m 1,5 km/h NW 7,7 C 16,5 C 6,0 km/h
06.09.2010 16:00 18,8 C 48 % 1018,0 hPa 0,0 l/m 1,2 km/h NO 7,4 C 18,8 C 4,8 km/h
06.09.2010 17:00 18,8 C 47 % 1017,7 hPa 0,0 l/m 1,2 km/h N-NO 7,0 C 18,8 C 5,2 km/h
06.09.2010 18:00 17,9 C 48 % 1017,6 hPa 0,0 l/m 0,8 km/h NO 6,6 C 17,9 C 4,0 km/h
06.09.2010 19:00 15,8 C 54 % 1017,6 hPa 0,0 l/m 0,3 km/h N 6,4 C 15,8 C 1,2 km/h
06.09.2010 20:00 13,7 C 65 % 1017,9 hPa 0,0 l/m 0,1 km/h N 7,2 C 13,7 C 0,8 km/h
06.09.2010 21:00 12,2 C 71 % 1017,9 hPa 0,0 l/m 0,1 km/h N 7,0 C 12,2 C 1,6 km/h
06.09.2010 22:00 10,6 C 75 % 1017,7 hPa 0,0 l/m 0,0 km/h N 6,3 C 10,6 C 0,8 km/h
06.09.2010 23:00 9,5 C 78 % 1017,4 hPa 0,0 l/m 0,0 km/h N 5,8 C 9,5 C 1,2 km/h
07.09.2010 00:00 8,8 C 80 % 1017,0 hPa 0,0 l/m 0,0 km/h N 5,5 C 8,8 C 1,2 km/h
07.09.2010 01:00 7,9 C 82 % 1016,5 hPa 0,0 l/m 0,0 km/h N 5,0 C 7,9 C 0,0 km/h
07.09.2010 02:00 7,1 C 83 % 1016,2 hPa 0,0 l/m 0,0 km/h N 4,4 C 7,1 C 0,0 km/h
07.09.2010 03:00 6,4 C 85 % 1015,8 hPa 0,0 l/m 0,0 km/h N 4,0 C 6,4 C 0,0 km/h
07.09.2010 04:00 6,2 C 86 % 1015,5 hPa 0,0 l/m 0,0 km/h N 4,1 C 6,2 C 0,4 km/h
07.09.2010 05:00 7,4 C 88 % 1015,0 hPa 0,0 l/m 0,0 km/h N 5,5 C 7,4 C 0,0 km/h
07.09.2010 06:00 8,7 C 88 % 1015,0 hPa 0,0 l/m 0,0 km/h N 6,8 C 8,7 C 1,2 km/h
07.09.2010 07:00 9,1 C 88 % 1015,0 hPa 0,0 l/m 0,0 km/h N 7,2 C 9,1 C 1,2 km/h
07.09.2010 08:00 9,7 C 87 % 1014,9 hPa 0,0 l/m 0,5 km/h O 7,7 C 9,7 C 3,2 km/h
07.09.2010 09:00 10,8 C 88 % 1014,6 hPa 0,0 l/m 1,5 km/h O 8,9 C 10,8 C 6,0 km/h
07.09.2010 10:00 12,1 C 86 % 1014,2 hPa 0,0 l/m 1,6 km/h O 9,9 C 12,1 C 7,2 km/h
07.09.2010 11:00 12,9 C 81 % 1013,8 hPa 0,0 l/m 1,6 km/h O 9,6 C 12,9 C 7,2 km/h
07.09.2010 12:00 13,5 C 78 % 1013,4 hPa 0,0 l/m 1,3 km/h O-NO 9,7 C 13,5 C 7,6 km/h
07.09.2010 13:00 14,0 C 76 % 1013,0 hPa 0,0 l/m 1,5 km/h NO 9,7 C 14,0 C 10,4 km/h
07.09.2010 14:00 14,0 C 76 % 1012,9 hPa 0,0 l/m 1,5 km/h O-SO 9,8 C 14,0 C 10,4 km/h
07.09.2010 15:00 13,5 C 78 % 1012,8 hPa 0,0 l/m 1,3 km/h O 9,8 C 13,5 C 6,0 km/h
07.09.2010 16:00 13,2 C 81 % 1012,5 hPa 0,0 l/m 2,0 km/h O 10,0 C 13,2 C 7,6 km/h
07.09.2010 17:00 12,9 C 83 % 1012,6 hPa 0,0 l/m 0,9 km/h N 10,0 C 12,9 C 5,6 km/h
07.09.2010 18:00 12,7 C 85 % 1012,4 hPa 0,0 l/m 0,9 km/h O 10,1 C 12,7 C 6,4 km/h
07.09.2010 19:00 12,5 C 86 % 1012,5 hPa 0,0 l/m 0,5 km/h N 10,2 C 12,5 C 3,6 km/h
07.09.2010 20:00 12,4 C 87 % 1012,7 hPa 0,0 l/m 0,3 km/h N 10,2 C 12,4 C 3,2 km/h
07.09.2010 21:00 12,4 C 87 % 1012,6 hPa 0,3 l/m 0,2 km/h N 10,3 C 12,4 C 1,6 km/h
07.09.2010 22:00 12,3 C 88 % 1012,4 hPa 0,3 l/m 0,1 km/h N 10,2 C 12,3 C 1,6 km/h
07.09.2010 23:00 12,3 C 88 % 1012,1 hPa 0,0 l/m 0,0 km/h N 10,3 C 12,3 C 1,6 km/h
08.09.2010 00:00 12,4 C 87 % 1011,7 hPa 0,3 l/m 0,1 km/h N 10,2 C 12,4 C 1,6 km/h
08.09.2010 01:00 12,4 C 87 % 1011,4 hPa 0,3 l/m 0,1 km/h N 10,3 C 12,4 C 2,0 km/h
08.09.2010 02:00 12,5 C 87 % 1011,0 hPa 0,0 l/m 0,2 km/h N 10,4 C 12,5 C 2,0 km/h
08.09.2010 03:00 12,7 C 87 % 1010,6 hPa 0,0 l/m 0,3 km/h N 10,6 C 12,7 C 2,4 km/h
08.09.2010 04:00 12,8 C 87 % 1010,3 hPa 0,0 l/m 0,1 km/h N 10,7 C 12,8 C 1,6 km/h
08.09.2010 05:00 12,8 C 87 % 1010,0 hPa 0,3 l/m 0,2 km/h N 10,7 C 12,8 C 2,0 km/h
08.09.2010 06:00 12,9 C 87 % 1009,9 hPa 0,3 l/m 0,4 km/h N 10,8 C 12,9 C 3,2 km/h
08.09.2010 07:00 12,8 C 87 % 1010,0 hPa 0,0 l/m 1,1 km/h O 10,7 C 12,8 C 3,6 km/h
08.09.2010 08:00 12,5 C 87 % 1009,9 hPa 0,3 l/m 2,0 km/h O 10,3 C 12,5 C 4,8 km/h
08.09.2010 09:00 12,4 C 87 % 1010,0 hPa 0,3 l/m 2,7 km/h O 10,3 C 12,4 C 6,8 km/h
08.09.2010 10:00 12,7 C 87 % 1010,2 hPa 0,0 l/m 1,3 km/h O 10,6 C 12,7 C 5,6 km/h
08.09.2010 11:00 13,0 C 87 % 1010,0 hPa 0,0 l/m 1,2 km/h O 10,8 C 13,0 C 6,4 km/h
08.09.2010 12:00 13,3 C 86 % 1009,8 hPa 0,0 l/m 0,7 km/h O-NO 11,0 C 13,3 C 3,6 km/h
08.09.2010 13:00 13,5 C 87 % 1009,6 hPa 0,0 l/m 1,2 km/h O 11,3 C 13,5 C 5,6 km/h
08.09.2010 14:00 13,8 C 87 % 1009,0 hPa 0,0 l/m 1,0 km/h SO 11,6 C 13,8 C 4,0 km/h
08.09.2010 15:00 13,9 C 87 % 1008,7 hPa 0,0 l/m 0,6 km/h O 11,7 C 13,9 C 3,6 km/h
08.09.2010 16:00 14,3 C 87 % 1008,2 hPa 0,0 l/m 1,1 km/h O 12,1 C 14,3 C 5,2 km/h
08.09.2010 17:00 14,7 C 86 % 1008,4 hPa 0,0 l/m 0,3 km/h N 12,4 C 14,7 C 3,2 km/h
08.09.2010 18:00 14,9 C 87 % 1008,5 hPa 0,0 l/m 0,4 km/h N 12,8 C 14,9 C 4,8 km/h
08.09.2010 19:00 14,9 C 87 % 1008,3 hPa 0,0 l/m 0,4 km/h N 12,8 C 14,9 C 4,0 km/h
08.09.2010 20:00 15,0 C 87 % 1008,7 hPa 0,0 l/m 0,2 km/h N 12,8 C 15,0 C 5,2 km/h
08.09.2010 21:00 15,2 C 87 % 1008,9 hPa 0,0 l/m 0,3 km/h N 13,0 C 15,2 C 3,6 km/h
08.09.2010 22:00 15,2 C 86 % 1008,9 hPa 0,0 l/m 0,2 km/h N 12,9 C 15,2 C 2,8 km/h
08.09.2010 23:00 15,3 C 87 % 1009,5 hPa 0,0 l/m 0,1 km/h N 13,1 C 15,3 C 2,0 km/h
09.09.2010 00:00 15,4 C 87 % 1010,0 hPa 0,0 l/m 0,0 km/h N 13,2 C 15,4 C 0,4 km/h
09.09.2010 01:00 15,4 C 87 % 1010,0 hPa 0,0 l/m 0,0 km/h N 13,2 C 15,4 C 1,6 km/h
09.09.2010 02:00 15,3 C 87 % 1010,5 hPa 3,4 l/m 0,3 km/h W-SW 13,2 C 15,3 C 2,0 km/h
09.09.2010 03:00 14,1 C 87 % 1010,5 hPa 3,6 l/m 1,9 km/h SW 12,1 C 14,1 C 13,7 km/h
09.09.2010 04:00 13,7 C 88 % 1010,8 hPa 2,9 l/m 1,7 km/h S-SO 11,7 C 13,7 C 11,3 km/h
09.09.2010 05:00 13,6 C 88 % 1011,3 hPa 0,0 l/m 0,7 km/h N 11,6 C 13,6 C 7,3 km/h
09.09.2010 06:00 13,4 C 88 % 1011,7 hPa 0,3 l/m 0,2 km/h N 11,5 C 13,4 C 3,2 km/h
09.09.2010 07:00 13,5 C 88 % 1012,1 hPa 0,0 l/m 0,2 km/h N 11,5 C 13,5 C 4,0 km/h
09.09.2010 08:00 14,0 C 88 % 1012,5 hPa 0,0 l/m 0,3 km/h N 12,1 C 14,0 C 2,8 km/h
09.09.2010 09:00 15,1 C 86 % 1013,2 hPa 0,0 l/m 2,4 km/h W-NW 12,8 C 15,1 C 12,5 km/h
09.09.2010 10:00 16,9 C 74 % 1013,7 hPa 0,0 l/m 3,2 km/h S 12,3 C 16,9 C 16,5 km/h
09.09.2010 11:00 16,9 C 73 % 1014,3 hPa 0,0 l/m 1,9 km/h W-SW 11,9 C 16,9 C 11,7 km/h
09.09.2010 12:00 16,8 C 70 % 1014,7 hPa 0,0 l/m 2,9 km/h S-SW 11,3 C 16,8 C 16,9 km/h
09.09.2010 13:00 16,8 C 71 % 1015,4 hPa 0,0 l/m 1,2 km/h SW 11,4 C 16,8 C 10,4 km/h
09.09.2010 14:00 18,0 C 69 % 1015,5 hPa 0,0 l/m 2,6 km/h NO 12,2 C 18,0 C 10,0 km/h
09.09.2010 15:00 19,6 C 62 % 1015,7 hPa 0,3 l/m 3,6 km/h S-SO 12,0 C 19,6 C 15,7 km/h
09.09.2010 16:00 20,0 C 62 % 1016,1 hPa 0,0 l/m 3,0 km/h NW 12,5 C 20,0 C 12,1 km/h
09.09.2010 17:00 20,6 C 60 % 1015,8 hPa 0,0 l/m 3,7 km/h NW 12,5 C 20,6 C 10,9 km/h
09.09.2010 18:00 19,9 C 61 % 1016,3 hPa 0,0 l/m 1,1 km/h S-SO 12,0 C 19,9 C 6,4 km/h
09.09.2010 19:00 18,1 C 65 % 1017,1 hPa 0,0 l/m 0,6 km/h SW 11,5 C 18,1 C 6,8 km/h
09.09.2010 20:00 16,5 C 71 % 1018,1 hPa 0,0 l/m 0,9 km/h SW 11,2 C 16,5 C 7,2 km/h
09.09.2010 21:00 15,8 C 73 % 1018,5 hPa 0,0 l/m 0,1 km/h N 10,8 C 15,8 C 1,2 km/h
09.09.2010 22:00 14,5 C 77 % 1018,7 hPa 0,0 l/m 0,0 km/h N 10,6 C 14,5 C 0,8 km/h
09.09.2010 23:00 13,4 C 81 % 1019,5 hPa 0,0 l/m 0,0 km/h N 10,2 C 13,4 C 0,0 km/h
10.09.2010 00:00 12,6 C 83 % 1019,7 hPa 0,0 l/m 0,0 km/h N 9,8 C 12,6 C 0,0 km/h
10.09.2010 01:00 11,9 C 85 % 1019,6 hPa 0,0 l/m 0,0 km/h N 9,4 C 11,9 C 0,0 km/h
10.09.2010 02:00 11,9 C 87 % 1019,3 hPa 0,0 l/m 0,0 km/h N 9,7 C 11,9 C 0,4 km/h
10.09.2010 03:00 12,6 C 87 % 1019,6 hPa 0,0 l/m 0,2 km/h N 10,5 C 12,6 C 2,0 km/h
10.09.2010 04:00 14,1 C 84 % 1019,5 hPa 0,0 l/m 1,5 km/h N-NW 11,4 C 14,1 C 6,0 km/h
10.09.2010 05:00 14,9 C 77 % 1019,5 hPa 0,0 l/m 1,8 km/h NW 11,0 C 14,9 C 6,4 km/h
10.09.2010 06:00 14,9 C 77 % 1020,0 hPa 0,0 l/m 1,5 km/h NW 10,9 C 14,9 C 5,6 km/h
10.09.2010 07:00 14,9 C 78 % 1020,6 hPa 0,0 l/m 2,3 km/h NW 11,1 C 14,9 C 5,6 km/h
10.09.2010 08:00 15,0 C 79 % 1020,8 hPa 0,0 l/m 2,6 km/h NW 11,3 C 15,0 C 7,2 km/h
10.09.2010 09:00 15,6 C 78 % 1021,0 hPa 0,0 l/m 3,0 km/h NW 11,8 C 15,6 C 8,9 km/h
10.09.2010 10:00 17,1 C 74 % 1021,1 hPa 0,0 l/m 4,6 km/h NW 12,3 C 17,1 C 15,7 km/h
10.09.2010 11:00 18,4 C 69 % 1021,1 hPa 0,0 l/m 5,5 km/h NW 12,5 C 18,4 C 16,5 km/h
10.09.2010 12:00 18,8 C 67 % 1020,9 hPa 0,0 l/m 3,9 km/h N-NW 12,5 C 18,8 C 12,1 km/h
10.09.2010 13:00 18,9 C 67 % 1020,9 hPa 0,0 l/m 4,4 km/h N-NW 12,5 C 18,9 C 9,7 km/h
10.09.2010 14:00 19,1 C 68 % 1020,7 hPa 0,0 l/m 2,7 km/h N-NO 13,0 C 19,1 C 7,6 km/h
10.09.2010 15:00 19,3 C 69 % 1020,2 hPa 0,0 l/m 2,8 km/h NW 13,4 C 19,3 C 8,4 km/h
10.09.2010 16:00 19,4 C 69 % 1019,5 hPa 0,0 l/m 2,4 km/h NW 13,5 C 19,4 C 6,8 km/h
10.09.2010 17:00 19,4 C 70 % 1019,4 hPa 0,0 l/m 2,0 km/h NW 13,6 C 19,4 C 6,4 km/h
10.09.2010 18:00 18,9 C 71 % 1019,3 hPa 0,0 l/m 1,6 km/h NW 13,5 C 18,9 C 6,0 km/h
10.09.2010 19:00 18,2 C 72 % 1019,4 hPa 0,0 l/m 1,4 km/h NW 13,0 C 18,2 C 4,0 km/h
10.09.2010 20:00 17,2 C 73 % 1019,8 hPa 0,0 l/m 1,2 km/h N-NW 12,2 C 17,2 C 4,8 km/h
10.09.2010 21:00 16,8 C 73 % 1020,3 hPa 0,0 l/m 1,2 km/h NW 12,0 C 16,8 C 4,8 km/h
10.09.2010 22:00 16,7 C 73 % 1020,5 hPa 0,0 l/m 2,2 km/h NW 11,9 C 16,7 C 6,8 km/h
10.09.2010 23:00 16,5 C 75 % 1020,7 hPa 0,0 l/m 3,0 km/h NW 11,9 C 16,5 C 8,9 km/h
11.09.2010 00:00 16,1 C 75 % 1020,7 hPa 0,0 l/m 2,3 km/h NW 11,7 C 16,1 C 8,0 km/h
11.09.2010 01:00 15,8 C 76 % 1020,4 hPa 0,0 l/m 2,0 km/h N-NW 11,5 C 15,8 C 8,1 km/h
11.09.2010 02:00 15,6 C 76 % 1020,4 hPa 0,0 l/m 2,9 km/h NW 11,4 C 15,6 C 8,4 km/h
11.09.2010 03:00 15,6 C 76 % 1020,2 hPa 0,0 l/m 2,3 km/h N-NW 11,4 C 15,6 C 8,0 km/h
11.09.2010 04:00 15,3 C 77 % 1020,3 hPa 0,0 l/m 2,6 km/h NW 11,3 C 15,3 C 8,0 km/h
11.09.2010 05:00 15,0 C 78 % 1020,0 hPa 0,0 l/m 2,6 km/h NW 11,2 C 15,0 C 8,4 km/h
11.09.2010 06:00 14,8 C 79 % 1020,3 hPa 0,0 l/m 2,2 km/h NW 11,2 C 14,8 C 7,6 km/h
11.09.2010 07:00 14,9 C 79 % 1020,5 hPa 0,0 l/m 2,7 km/h NW 11,2 C 14,9 C 10,9 km/h
11.09.2010 08:00 14,9 C 79 % 1020,6 hPa 0,0 l/m 1,8 km/h W-NW 11,3 C 14,9 C 6,4 km/h
11.09.2010 09:00 15,4 C 79 % 1020,8 hPa 0,0 l/m 4,3 km/h NW 11,7 C 15,4 C 9,7 km/h
11.09.2010 10:00 17,0 C 76 % 1020,9 hPa 0,0 l/m 4,3 km/h NW 12,8 C 17,0 C 10,5 km/h
11.09.2010 11:00 18,7 C 71 % 1020,7 hPa 0,0 l/m 4,3 km/h N 13,2 C 18,7 C 10,5 km/h
11.09.2010 12:00 20,2 C 63 % 1020,6 hPa 0,0 l/m 5,0 km/h NW 13,0 C 20,2 C 11,7 km/h
11.09.2010 13:00 20,7 C 61 % 1020,2 hPa 0,0 l/m 4,7 km/h N-NW 12,8 C 20,7 C 11,3 km/h
11.09.2010 14:00 20,4 C 62 % 1019,8 hPa 0,0 l/m 4,1 km/h N-NW 12,8 C 20,4 C 10,9 km/h
11.09.2010 15:00 20,5 C 63 % 1019,7 hPa 0,0 l/m 3,4 km/h N-NW 13,2 C 20,5 C 8,9 km/h
11.09.2010 16:00 20,0 C 64 % 1019,8 hPa 0,0 l/m 2,4 km/h NW 12,9 C 20,0 C 8,0 km/h
11.09.2010 17:00 19,5 C 68 % 1019,9 hPa 0,5 l/m 1,6 km/h O-NO 13,3 C 19,5 C 6,4 km/h
11.09.2010 18:00 17,7 C 75 % 1020,1 hPa 0,0 l/m 0,1 km/h N 13,2 C 17,7 C 1,6 km/h
11.09.2010 19:00 16,8 C 77 % 1020,4 hPa 0,0 l/m 0,0 km/h N 12,7 C 16,8 C 0,0 km/h
11.09.2010 20:00 16,0 C 81 % 1020,8 hPa 0,0 l/m 0,1 km/h N 12,6 C 16,0 C 0,8 km/h
11.09.2010 21:00 15,9 C 81 % 1020,8 hPa 0,0 l/m 0,0 km/h N 12,6 C 15,9 C 1,2 km/h
11.09.2010 22:00 15,8 C 80 % 1020,7 hPa 0,0 l/m 0,2 km/h N 12,4 C 15,8 C 1,6 km/h
11.09.2010 23:00 15,8 C 79 % 1020,5 hPa 0,0 l/m 0,1 km/h N 12,2 C 15,8 C 1,2 km/h
12.09.2010 00:00 15,7 C 79 % 1020,4 hPa 0,0 l/m 0,0 km/h N 12,1 C 15,7 C 0,4 km/h
12.09.2010 01:00 15,6 C 79 % 1020,1 hPa 0,0 l/m 0,3 km/h N 12,0 C 15,6 C 2,4 km/h
12.09.2010 02:00 15,6 C 79 % 1019,9 hPa 0,0 l/m 0,2 km/h N 12,0 C 15,6 C 2,4 km/h
12.09.2010 03:00 15,0 C 80 % 1019,8 hPa 0,0 l/m 0,0 km/h N 11,6 C 15,0 C 0,8 km/h
12.09.2010 04:00 14,8 C 83 % 1019,8 hPa 0,0 l/m 0,2 km/h N-NW 12,0 C 14,8 C 2,8 km/h
12.09.2010 05:00 14,9 C 82 % 1019,9 hPa 0,0 l/m 1,0 km/h N-NW 11,9 C 14,9 C 4,4 km/h
12.09.2010 06:00 14,9 C 83 % 1019,9 hPa 0,0 l/m 0,5 km/h N 11,9 C 14,9 C 3,2 km/h
12.09.2010 07:00 14,9 C 83 % 1020,0 hPa 0,0 l/m 0,0 km/h N 12,0 C 14,9 C 1,2 km/h
12.09.2010 08:00 15,1 C 83 % 1020,1 hPa 0,0 l/m 0,4 km/h N 12,3 C 15,1 C 3,6 km/h
12.09.2010 09:00 15,8 C 82 % 1020,3 hPa 0,0 l/m 1,2 km/h NW 12,7 C 15,8 C 6,0 km/h
12.09.2010 10:00 16,6 C 80 % 1020,4 hPa 0,0 l/m 2,0 km/h NW 13,1 C 16,6 C 6,0 km/h
12.09.2010 11:00 17,7 C 77 % 1020,1 hPa 0,0 l/m 1,3 km/h NW 13,7 C 17,7 C 6,8 km/h
12.09.2010 12:00 19,0 C 74 % 1019,9 hPa 0,0 l/m 1,9 km/h N-NW 14,1 C 19,0 C 7,2 km/h
12.09.2010 13:00 20,8 C 68 % 1019,5 hPa 0,0 l/m 2,3 km/h S-SW 14,5 C 20,8 C 6,4 km/h
12.09.2010 14:00 22,9 C 59 % 1018,9 hPa 0,0 l/m 1,5 km/h SW 14,5 C 22,9 C 5,6 km/h
12.09.2010 15:00 23,5 C 58 % 1018,3 hPa 0,0 l/m 1,0 km/h N-NO 14,7 C 23,5 C 4,8 km/h
12.09.2010 16:00 22,9 C 59 % 1017,8 hPa 0,0 l/m 0,8 km/h NO 14,3 C 22,9 C 2,8 km/h
12.09.2010 17:00 21,4 C 64 % 1017,7 hPa 0,0 l/m 0,3 km/h N 14,2 C 21,4 C 1,6 km/h
12.09.2010 18:00 20,6 C 66 % 1017,7 hPa 0,0 l/m 0,1 km/h N 14,1 C 20,6 C 0,4 km/h
12.09.2010 19:00 18,8 C 73 % 1018,0 hPa 0,0 l/m 0,0 km/h N 13,9 C 18,8 C 0,0 km/h
12.09.2010 20:00 16,9 C 79 % 1018,4 hPa 0,0 l/m 0,0 km/h N 13,2 C 16,9 C 0,4 km/h
12.09.2010 21:00 15,7 C 83 % 1018,4 hPa 0,0 l/m 0,0 km/h N 12,8 C 15,7 C 0,0 km/h
12.09.2010 22:00 14,9 C 85 % 1018,3 hPa 0,0 l/m 0,0 km/h N 12,3 C 14,9 C 0,0 km/h
12.09.2010 23:00 14,2 C 86 % 1017,9 hPa 0,0 l/m 0,0 km/h N 11,9 C 14,2 C 0,0 km/h
Min-Datum _ 07.09.10 06.09.10 08.09.10 - 06.09.10 - 07.09.10 07.09.10 06.09.10
_ Min-Zeit 04:15 13:15 16:15 - 00:00 - 03:45 04:15 01:45
Minimum _ 6,1 C 45 % 1008,0 hPa - 0,0 km/h - 3,9 C 6,1 C 0,0 km/h
Max-Datum _ 12.09.10 09.09.10 06.09.10 09.09.10 10.09.10 - 12.09.10 12.09.10 09.09.10
_ Max-Zeit 15:45 09:00 00:15 03:15 10:30 - 13:15 15:45 03:00
Maximum _ 23,8 C 89 % 1021,9 hPa 3,6 l/m 6,2 km/h
NW
- 14,9 C 23,8 C 25,7 km/h
SW
Durchschnitt _ 14,8 C 77 % 1016,8 hPa #13,0 l/m 1,3 km/h NW 10,7 C 14,8 C 5,1 km/h